Etusivu
METAR-TAF:

METAR-TAF

Lentoasemat :

Kédougou, Senegal

Leveyspiiri: 12-34N, Pituuspiiri: 012-13W, korkeus merenpinnasta: 178 m

Tämänhetkinen sää

Tämä raportti tehtiin 56 minuuttia sitten, kello 19.00 UTC
Tuuli 4 kn lännestä
Lämpötila 32°C
Kosteus 67%
Ilmanpaine 1011 hPa
Näkyvyys 10 km tai enemmän
Muutamia pilviä 1500 ft:n korkeudessa, Kasvava cumulus-pilvi.

METAR: GOTK 221900Z 28004KT 9999 FEW015TCU 32/25 Q1011

Aika: 19:56 (19:56 UTC)


TAF: puuttuu

Säähavainnot ja -ennusteet yli 4000 lentoasemalta (METAR- ja TAF-raportit).

Käytössä olevat sääasemat on merkitty karttaan keltaisilla ja punaisilla pisteillä.

Aseta hiiri pisteen päälle nähdäksesi sääaseman nimen.

Klikkaa sitten nähdäksesi säähavainnot ja -ennusteet.

Kartan vaihtaminen: klikkaa mustalla rastilla varustettuja vihreitä pisteitä, niin voit zoomata sisään; viivalla varustettua vihreää pistettä, niin voit zoomata ulos tai vihreitä nuolia, niin pääset viereisille kartoille.


METAR-TAF: